createdAt,value
2023-05-07T00:00:35.008Z,37.75
2023-05-07T00:01:34.913Z,37.85
2023-05-07T00:02:34.968Z,37.85
2023-05-07T00:03:35.046Z,37.91
2023-05-07T00:04:34.925Z,37.85
2023-05-07T00:05:34.855Z,37.85
2023-05-07T00:06:34.853Z,37.80
2023-05-07T00:07:34.946Z,37.85
2023-05-07T00:08:34.819Z,37.91
2023-05-07T00:09:34.810Z,37.80
2023-05-07T00:10:34.800Z,37.85
2023-05-07T00:11:36.960Z,37.91
2023-05-07T00:12:34.903Z,37.80
2023-05-07T00:13:34.759Z,37.91
2023-05-07T00:14:34.738Z,37.85
2023-05-07T00:15:34.731Z,37.85
2023-05-07T00:16:34.741Z,37.85
2023-05-07T00:17:34.732Z,37.91
2023-05-07T00:18:34.703Z,37.85
2023-05-07T00:19:34.683Z,37.85
2023-05-07T00:20:36.077Z,37.91
2023-05-07T00:21:34.656Z,37.85
2023-05-07T00:22:34.642Z,37.85
2023-05-07T00:23:34.720Z,37.80
2023-05-07T00:24:34.622Z,37.80
2023-05-07T00:25:34.612Z,37.85
2023-05-07T00:26:34.597Z,37.85
2023-05-07T00:27:34.575Z,37.85
2023-05-07T00:28:34.561Z,37.85
2023-05-07T00:29:34.564Z,37.85
2023-05-07T00:30:34.540Z,37.85
2023-05-07T00:31:34.557Z,37.85
2023-05-07T00:32:34.539Z,37.85
2023-05-07T00:33:34.493Z,37.85
2023-05-07T00:34:34.501Z,37.80
2023-05-07T00:35:34.479Z,37.91
2023-05-07T00:36:34.477Z,37.96
2023-05-07T00:37:34.445Z,37.80
2023-05-07T00:38:34.454Z,37.85
2023-05-07T00:39:34.524Z,37.80
2023-05-07T00:40:34.402Z,37.80
2023-05-07T00:41:34.404Z,37.80
2023-05-07T00:42:34.386Z,37.85
2023-05-07T00:43:34.363Z,37.80
2023-05-07T00:44:34.359Z,37.85
2023-05-07T00:45:34.401Z,37.91
2023-05-07T00:46:34.358Z,37.85
2023-05-07T00:47:34.374Z,37.80
2023-05-07T00:48:34.297Z,37.85
2023-05-07T00:49:34.291Z,37.91
2023-05-07T00:50:34.281Z,37.85
2023-05-07T00:51:34.289Z,37.75
2023-05-07T00:52:34.248Z,37.85
2023-05-07T00:53:34.234Z,37.80
2023-05-07T00:54:34.225Z,37.80
2023-05-07T00:55:34.309Z,37.85
2023-05-07T00:56:34.203Z,37.80
2023-05-07T00:57:34.190Z,37.80
2023-05-07T00:58:34.176Z,37.85
2023-05-07T00:59:34.174Z,37.85
2023-05-07T01:00:34.141Z,37.80
2023-05-07T01:01:34.242Z,37.91
2023-05-07T01:02:34.181Z,37.91
2023-05-07T01:03:34.122Z,37.80
2023-05-07T01:04:34.162Z,37.85
2023-05-07T01:05:34.093Z,37.80
2023-05-07T01:06:34.073Z,37.75
2023-05-07T01:07:34.064Z,37.85
2023-05-07T01:08:34.056Z,37.80
2023-05-07T01:09:34.040Z,37.91
2023-05-07T01:10:34.017Z,37.80
2023-05-07T01:11:34.101Z,37.80
2023-05-07T01:12:34.117Z,37.91
2023-05-07T01:13:33.988Z,37.85
2023-05-07T01:14:34.027Z,37.85
2023-05-07T01:15:33.960Z,37.80
2023-05-07T01:16:33.966Z,37.85
2023-05-07T01:17:33.946Z,37.80
2023-05-07T01:18:33.912Z,37.80
2023-05-07T01:19:33.899Z,37.75
2023-05-07T01:20:33.891Z,37.85
2023-05-07T01:21:33.881Z,37.85
2023-05-07T01:22:33.856Z,37.85
2023-05-07T01:23:33.852Z,37.96
2023-05-07T01:24:33.842Z,37.85
2023-05-07T01:25:33.814Z,37.85
2023-05-07T01:26:33.826Z,37.85
2023-05-07T01:27:33.816Z,37.85
2023-05-07T01:28:33.788Z,37.80
2023-05-07T01:29:33.778Z,37.85
2023-05-07T01:30:33.766Z,37.80
2023-05-07T01:31:33.843Z,37.91
2023-05-07T01:32:33.759Z,37.80
2023-05-07T01:33:33.716Z,37.85
2023-05-07T01:34:33.714Z,37.85
2023-05-07T01:35:33.697Z,37.85
2023-05-07T01:36:33.686Z,37.75
2023-05-07T01:37:33.672Z,37.75
2023-05-07T01:38:33.644Z,37.75
2023-05-07T01:39:33.645Z,37.91
2023-05-07T01:40:33.634Z,37.85
2023-05-07T01:41:33.610Z,37.85
2023-05-07T01:42:33.600Z,37.85
2023-05-07T01:43:33.611Z,37.85
2023-05-07T01:44:33.577Z,37.85
2023-05-07T01:45:33.571Z,37.75
2023-05-07T01:46:33.627Z,37.85
2023-05-07T01:47:33.570Z,37.80
2023-05-07T01:48:33.517Z,37.80
2023-05-07T01:49:33.516Z,37.80
2023-05-07T01:50:33.494Z,37.80
2023-05-07T01:51:33.473Z,37.91
2023-05-07T01:52:33.470Z,37.85
2023-05-07T01:53:33.450Z,37.91
2023-05-07T01:54:33.459Z,37.85
2023-05-07T01:55:33.434Z,37.80
2023-05-07T01:56:33.411Z,37.80
2023-05-07T01:57:33.413Z,37.80
2023-05-07T01:58:33.400Z,37.85
2023-05-07T01:59:33.402Z,37.75
2023-05-07T02:00:33.385Z,37.75
2023-05-07T02:01:33.375Z,37.85
2023-05-07T02:02:33.424Z,37.80
2023-05-07T02:03:33.444Z,37.85
2023-05-07T02:04:33.317Z,37.85
2023-05-07T02:05:33.293Z,37.80
2023-05-07T02:06:33.293Z,37.80
2023-05-07T02:07:33.280Z,37.80
2023-05-07T02:08:33.263Z,37.85
2023-05-07T02:09:33.243Z,37.85
2023-05-07T02:10:33.256Z,37.85
2023-05-07T02:11:33.226Z,37.91
2023-05-07T02:12:33.205Z,37.80
2023-05-07T02:13:33.205Z,37.85
2023-05-07T02:14:33.186Z,37.91
2023-05-07T02:15:33.279Z,37.85
2023-05-07T02:16:33.218Z,37.85
2023-05-07T02:17:33.192Z,37.80
2023-05-07T02:18:33.156Z,37.85
2023-05-07T02:19:33.127Z,37.85
2023-05-07T02:20:33.104Z,37.85
2023-05-07T02:21:33.096Z,37.80
2023-05-07T02:22:33.089Z,37.85
2023-05-07T02:23:33.078Z,37.85
2023-05-07T02:24:33.058Z,37.85
2023-05-07T02:25:33.052Z,37.91
2023-05-07T02:26:33.027Z,37.80
2023-05-07T02:27:33.026Z,37.85
2023-05-07T02:28:33.035Z,37.80
2023-05-07T02:29:33.007Z,37.80
2023-05-07T02:30:32.970Z,37.75
2023-05-07T02:31:33.107Z,37.80
2023-05-07T02:32:32.990Z,37.85
2023-05-07T02:33:32.940Z,37.85
2023-05-07T02:34:32.923Z,37.85
2023-05-07T02:35:32.918Z,37.85
2023-05-07T02:36:32.902Z,37.85
2023-05-07T02:37:32.890Z,37.91
2023-05-07T02:38:32.875Z,37.91
2023-05-07T02:39:32.865Z,37.80
2023-05-07T02:40:32.853Z,37.85
2023-05-07T02:41:32.832Z,37.85
2023-05-07T02:42:32.822Z,37.85
2023-05-07T02:43:32.813Z,37.85
2023-05-07T02:44:32.808Z,37.85
2023-05-07T02:45:32.825Z,37.80
2023-05-07T02:46:32.780Z,37.91
2023-05-07T02:47:32.807Z,37.91
2023-05-07T02:48:32.750Z,37.85
2023-05-07T02:49:32.736Z,37.80
2023-05-07T02:50:32.727Z,37.80
2023-05-07T02:51:32.702Z,37.85
2023-05-07T02:52:32.699Z,37.85
2023-05-07T02:53:32.688Z,37.75
2023-05-07T02:54:32.669Z,37.80
2023-05-07T02:55:32.659Z,37.85
2023-05-07T02:56:32.663Z,37.85
2023-05-07T02:57:32.643Z,37.85
2023-05-07T02:58:32.664Z,37.80
2023-05-07T02:59:32.609Z,37.80
2023-05-07T03:00:32.591Z,37.91
2023-05-07T03:01:32.637Z,37.75
2023-05-07T03:02:32.585Z,37.80
2023-05-07T03:03:32.651Z,37.85
2023-05-07T03:04:32.626Z,37.85
2023-05-07T03:05:32.530Z,37.85
2023-05-07T03:06:32.515Z,37.85
2023-05-07T03:07:32.512Z,37.80
2023-05-07T03:08:32.485Z,37.91
2023-05-07T03:09:32.472Z,37.80
2023-05-07T03:10:32.477Z,37.85
2023-05-07T03:11:32.468Z,37.85
2023-05-07T03:12:32.434Z,37.80
2023-05-07T03:13:32.416Z,37.75
2023-05-07T03:14:32.414Z,37.85
2023-05-07T03:15:32.438Z,37.85
2023-05-07T03:16:32.454Z,37.80
2023-05-07T03:17:32.404Z,37.75
2023-05-07T03:18:32.402Z,37.80
2023-05-07T03:19:32.440Z,37.80
2023-05-07T03:20:32.394Z,37.85
2023-05-07T03:21:32.325Z,37.85
2023-05-07T03:22:32.315Z,37.85
2023-05-07T03:23:32.302Z,37.85
2023-05-07T03:24:32.286Z,37.85
2023-05-07T03:25:32.270Z,37.85
2023-05-07T03:26:32.262Z,37.85
2023-05-07T03:27:32.255Z,37.85
2023-05-07T03:28:32.225Z,37.85
2023-05-07T03:29:32.213Z,37.85
2023-05-07T03:30:32.204Z,37.91
2023-05-07T03:31:32.246Z,37.80
2023-05-07T03:32:32.242Z,37.80
2023-05-07T03:33:32.172Z,37.91
2023-05-07T03:34:32.163Z,37.91
2023-05-07T03:35:32.316Z,37.85
2023-05-07T03:36:32.134Z,37.96
2023-05-07T03:37:32.115Z,37.91
2023-05-07T03:38:32.096Z,37.85
2023-05-07T03:39:32.089Z,37.91
2023-05-07T03:40:32.079Z,37.85
2023-05-07T03:41:32.053Z,37.85
2023-05-07T03:42:32.048Z,37.96
2023-05-07T03:43:32.029Z,37.80
2023-05-07T03:44:32.019Z,37.85
2023-05-07T03:45:32.007Z,37.75
2023-05-07T03:46:32.032Z,37.85
2023-05-07T03:47:32.016Z,37.91
2023-05-07T03:48:31.978Z,37.80
2023-05-07T03:49:31.962Z,37.91
2023-05-07T03:50:31.943Z,37.80
2023-05-07T03:51:32.030Z,37.85
2023-05-07T03:52:31.920Z,37.80
2023-05-07T03:53:31.912Z,37.85
2023-05-07T03:54:31.888Z,37.75
2023-05-07T03:55:31.879Z,37.85
2023-05-07T03:56:31.864Z,37.75
2023-05-07T03:57:31.859Z,37.85
2023-05-07T03:58:31.845Z,37.75
2023-05-07T03:59:31.824Z,37.75
2023-05-07T04:00:31.814Z,37.91
2023-05-07T04:01:31.871Z,37.75
2023-05-07T04:02:31.852Z,37.80
2023-05-07T04:03:31.841Z,37.80
2023-05-07T04:04:31.769Z,37.80
2023-05-07T04:05:31.754Z,37.91
2023-05-07T04:06:31.746Z,37.80
2023-05-07T04:07:31.822Z,37.85
2023-05-07T04:08:31.723Z,37.85
2023-05-07T04:09:31.699Z,37.85
2023-05-07T04:10:31.690Z,37.80
2023-05-07T04:11:31.679Z,37.80
2023-05-07T04:12:31.666Z,37.85
2023-05-07T04:13:31.653Z,37.80
2023-05-07T04:14:31.644Z,37.80
2023-05-07T04:15:31.618Z,37.85
2023-05-07T04:16:31.642Z,37.75
2023-05-07T04:17:31.653Z,37.85
2023-05-07T04:18:31.582Z,37.91
2023-05-07T04:19:31.572Z,37.91
2023-05-07T04:20:31.560Z,37.80
2023-05-07T04:21:31.554Z,37.85
2023-05-07T04:22:31.550Z,37.75
2023-05-07T04:23:31.623Z,37.85
2023-05-07T04:24:31.510Z,37.75
2023-05-07T04:25:31.500Z,37.85
2023-05-07T04:26:31.487Z,37.85
2023-05-07T04:27:31.476Z,37.80
2023-05-07T04:28:31.450Z,37.80
2023-05-07T04:29:31.451Z,37.96
2023-05-07T04:30:31.425Z,37.75
2023-05-07T04:31:31.496Z,37.85
2023-05-07T04:32:31.473Z,37.85
2023-05-07T04:33:31.383Z,37.85
2023-05-07T04:34:31.379Z,37.85
2023-05-07T04:35:31.368Z,37.80
2023-05-07T04:36:31.352Z,37.80
2023-05-07T04:37:31.340Z,37.80
2023-05-07T04:38:31.325Z,37.80
2023-05-07T04:39:31.502Z,37.85
2023-05-07T04:40:31.299Z,37.80
2023-05-07T04:41:31.285Z,37.85
2023-05-07T04:42:31.284Z,37.75
2023-05-07T04:43:31.265Z,37.85
2023-05-07T04:44:31.250Z,37.91
2023-05-07T04:45:31.233Z,37.80
2023-05-07T04:46:31.263Z,37.91
2023-05-07T04:47:31.248Z,37.85
2023-05-07T04:48:31.200Z,37.80
2023-05-07T04:49:31.181Z,37.85
2023-05-07T04:50:31.167Z,37.80
2023-05-07T04:51:31.157Z,37.80
2023-05-07T04:52:31.151Z,37.85
2023-05-07T04:53:31.133Z,37.91
2023-05-07T04:54:31.121Z,37.85
2023-05-07T04:55:31.263Z,37.85
2023-05-07T04:56:31.133Z,37.85
2023-05-07T04:57:31.082Z,37.91
2023-05-07T04:58:31.070Z,37.85
2023-05-07T04:59:31.053Z,37.80
2023-05-07T05:00:31.043Z,37.85
2023-05-07T05:01:31.075Z,37.85
2023-05-07T05:02:31.064Z,37.85
2023-05-07T05:03:31.096Z,37.85
2023-05-07T05:04:30.991Z,37.85
2023-05-07T05:05:30.980Z,37.85
2023-05-07T05:06:30.958Z,37.96
2023-05-07T05:07:30.967Z,37.85
2023-05-07T05:08:30.944Z,37.91
2023-05-07T05:09:30.930Z,37.80
2023-05-07T05:10:30.912Z,37.75
2023-05-07T05:11:30.920Z,37.91
2023-05-07T05:12:30.888Z,37.80
2023-05-07T05:13:30.875Z,37.80
2023-05-07T05:14:30.864Z,37.75
2023-05-07T05:15:33.139Z,37.85
2023-05-07T05:16:30.858Z,37.80
2023-05-07T05:17:30.865Z,37.85
2023-05-07T05:18:30.811Z,37.91
2023-05-07T05:19:30.802Z,37.80
2023-05-07T05:20:30.798Z,37.91
2023-05-07T05:21:30.782Z,37.80
2023-05-07T05:22:30.754Z,37.85
2023-05-07T05:23:30.746Z,37.85
2023-05-07T05:24:30.722Z,37.80
2023-05-07T05:25:30.713Z,37.80
2023-05-07T05:26:30.699Z,37.85
2023-05-07T05:27:30.784Z,37.85
2023-05-07T05:28:30.691Z,37.85
2023-05-07T05:29:30.662Z,37.85
2023-05-07T05:30:30.655Z,37.80
2023-05-07T05:31:30.681Z,37.80
2023-05-07T05:32:30.646Z,37.85
2023-05-07T05:33:30.612Z,37.85
2023-05-07T05:34:30.605Z,37.75
2023-05-07T05:35:30.591Z,37.85
2023-05-07T05:36:30.580Z,37.91
2023-05-07T05:37:30.554Z,37.91
2023-05-07T05:38:30.543Z,37.85
2023-05-07T05:39:30.539Z,37.91
2023-05-07T05:40:30.533Z,37.85
2023-05-07T05:41:30.523Z,37.85
2023-05-07T05:42:30.490Z,37.91
2023-05-07T05:43:30.581Z,37.80
2023-05-07T05:44:30.473Z,37.91
2023-05-07T05:45:30.454Z,37.80
2023-05-07T05:46:30.538Z,37.85
2023-05-07T05:47:30.452Z,37.80
2023-05-07T05:48:30.419Z,37.80
2023-05-07T05:49:30.400Z,37.91
2023-05-07T05:50:30.389Z,37.80
2023-05-07T05:51:30.395Z,37.85
2023-05-07T05:52:30.367Z,37.85
2023-05-07T05:53:30.352Z,37.80
2023-05-07T05:54:30.342Z,37.85
2023-05-07T05:55:30.345Z,37.75
2023-05-07T05:56:30.318Z,37.85
2023-05-07T05:57:30.291Z,37.85
2023-05-07T05:58:30.293Z,37.85
2023-05-07T05:59:30.392Z,37.96
2023-05-07T06:00:30.320Z,37.80
2023-05-07T06:01:30.261Z,37.80
2023-05-07T06:02:30.373Z,37.80
2023-05-07T06:03:30.272Z,37.85
2023-05-07T06:04:30.235Z,37.85
2023-05-07T06:05:30.278Z,37.85
2023-05-07T06:06:30.178Z,37.85
2023-05-07T06:07:30.163Z,37.80
2023-05-07T06:08:30.159Z,37.75
2023-05-07T06:09:30.149Z,37.85
2023-05-07T06:10:30.122Z,37.85
2023-05-07T06:11:30.104Z,37.85
2023-05-07T06:12:30.097Z,37.85
2023-05-07T06:13:30.204Z,37.85
2023-05-07T06:14:30.100Z,37.80
2023-05-07T06:15:30.159Z,37.75
2023-05-07T06:16:30.111Z,37.85
2023-05-07T06:17:30.075Z,37.91
2023-05-07T06:18:30.044Z,37.80
2023-05-07T06:19:30.024Z,37.75
2023-05-07T06:20:30.001Z,37.80
2023-05-07T06:21:29.988Z,37.80
2023-05-07T06:22:29.976Z,37.80
2023-05-07T06:23:29.958Z,37.85
2023-05-07T06:24:29.946Z,37.80
2023-05-07T06:25:29.931Z,37.85
2023-05-07T06:26:29.925Z,37.80
2023-05-07T06:27:29.918Z,37.85
2023-05-07T06:28:29.889Z,37.80
2023-05-07T06:29:29.882Z,37.80
2023-05-07T06:30:29.866Z,37.96
2023-05-07T06:31:29.985Z,37.80
2023-05-07T06:32:29.854Z,37.85
2023-05-07T06:33:29.823Z,37.80
2023-05-07T06:34:29.821Z,37.85
2023-05-07T06:35:29.796Z,37.85
2023-05-07T06:36:29.795Z,37.80
2023-05-07T06:37:29.777Z,37.91
2023-05-07T06:38:29.779Z,37.85
2023-05-07T06:39:29.772Z,37.80
2023-05-07T06:40:29.735Z,37.75
2023-05-07T06:41:29.723Z,37.80
2023-05-07T06:42:29.713Z,37.85
2023-05-07T06:43:29.706Z,37.80
2023-05-07T06:44:29.712Z,37.80
2023-05-07T06:45:29.687Z,37.91
2023-05-07T06:46:29.717Z,37.80
2023-05-07T06:47:29.786Z,37.91
2023-05-07T06:48:29.669Z,37.85
2023-05-07T06:49:29.639Z,37.85
2023-05-07T06:50:29.610Z,37.85
2023-05-07T06:51:29.596Z,37.85
2023-05-07T06:52:29.591Z,37.85
2023-05-07T06:53:29.573Z,37.80
2023-05-07T06:54:29.562Z,37.75
2023-05-07T06:55:29.553Z,37.80
2023-05-07T06:56:29.553Z,37.85
2023-05-07T06:57:29.528Z,37.80
2023-05-07T06:58:29.506Z,37.85
2023-05-07T06:59:29.513Z,37.85
2023-05-07T07:00:29.485Z,37.85
2023-05-07T07:01:29.541Z,37.80
2023-05-07T07:02:29.521Z,37.85
2023-05-07T07:03:29.554Z,37.80
2023-05-07T07:04:29.565Z,37.80
2023-05-07T07:05:29.424Z,37.80
2023-05-07T07:06:29.419Z,37.85
2023-05-07T07:07:29.398Z,37.80
2023-05-07T07:08:29.390Z,37.85
2023-05-07T07:09:29.360Z,37.85
2023-05-07T07:10:29.365Z,37.80
2023-05-07T07:11:29.329Z,37.91
2023-05-07T07:12:29.329Z,37.85
2023-05-07T07:13:29.312Z,37.91
2023-05-07T07:14:29.324Z,37.91
2023-05-07T07:15:29.303Z,37.85
2023-05-07T07:16:29.394Z,37.85
2023-05-07T07:17:29.293Z,37.85
2023-05-07T07:18:29.257Z,37.91
2023-05-07T07:19:29.339Z,37.91
2023-05-07T07:20:29.228Z,37.80
2023-05-07T07:21:29.207Z,37.85
2023-05-07T07:22:29.200Z,37.91
2023-05-07T07:23:29.184Z,37.80
2023-05-07T07:24:29.166Z,37.85
2023-05-07T07:25:29.157Z,37.85
2023-05-07T07:26:29.136Z,37.91
2023-05-07T07:27:29.121Z,37.85
2023-05-07T07:28:29.124Z,37.91
2023-05-07T07:29:29.133Z,37.85
2023-05-07T07:30:29.081Z,37.91
2023-05-07T07:31:29.159Z,37.80
2023-05-07T07:32:29.100Z,37.75
2023-05-07T07:33:29.049Z,37.85
2023-05-07T07:34:29.047Z,37.80
2023-05-07T07:35:29.051Z,37.91
2023-05-07T07:36:38.976Z,37.85
2023-05-07T07:37:30.028Z,37.85
2023-05-07T07:38:28.992Z,37.80
2023-05-07T07:39:28.973Z,37.85
2023-05-07T07:40:28.959Z,37.85
2023-05-07T07:41:28.950Z,37.85
2023-05-07T07:42:28.934Z,37.91
2023-05-07T07:43:28.924Z,37.85
2023-05-07T07:44:28.916Z,37.80
2023-05-07T07:45:28.907Z,36.67
2023-05-07T07:46:28.919Z,37.91
2023-05-07T07:47:28.917Z,37.85
2023-05-07T07:48:28.852Z,37.91
2023-05-07T07:49:28.848Z,37.80
2023-05-07T07:50:43.518Z,37.85
2023-05-07T07:51:29.958Z,37.85
2023-05-07T07:52:28.808Z,37.80
2023-05-07T07:53:28.788Z,37.85
2023-05-07T07:54:28.791Z,37.85
2023-05-07T07:55:28.773Z,37.85
2023-05-07T07:56:28.762Z,37.85
2023-05-07T07:57:28.734Z,37.80
2023-05-07T07:58:28.748Z,36.67
2023-05-07T07:59:28.708Z,37.85
2023-05-07T08:00:28.711Z,37.96
2023-05-07T08:01:28.685Z,37.85
2023-05-07T08:02:28.798Z,37.85
2023-05-07T08:03:28.732Z,37.85
2023-05-07T08:04:28.709Z,37.85
2023-05-07T08:05:28.638Z,37.91
2023-05-07T08:06:28.666Z,36.72
2023-05-07T08:07:28.705Z,37.85
2023-05-07T08:08:28.590Z,37.91
2023-05-07T08:09:28.627Z,37.80
2023-05-07T08:10:28.592Z,37.80
2023-05-07T08:11:28.562Z,37.85
2023-05-07T08:12:28.554Z,37.85
2023-05-07T08:13:28.669Z,37.85
2023-05-07T08:14:28.518Z,37.80
2023-05-07T08:15:28.513Z,37.85
2023-05-07T08:16:28.495Z,37.80
2023-05-07T08:17:28.501Z,37.91
2023-05-07T08:18:28.490Z,37.85
2023-05-07T08:19:28.461Z,37.75
2023-05-07T08:20:28.446Z,37.80
2023-05-07T08:21:28.464Z,37.75
2023-05-07T08:22:28.431Z,36.67
2023-05-07T08:23:28.547Z,37.91
2023-05-07T08:24:28.404Z,37.85
2023-05-07T08:25:28.383Z,37.85
2023-05-07T08:26:28.375Z,36.67
2023-05-07T08:27:28.374Z,37.91
2023-05-07T08:28:28.341Z,37.75
2023-05-07T08:29:28.338Z,37.85
2023-05-07T08:30:28.361Z,37.91
2023-05-07T08:31:28.328Z,37.85
2023-05-07T08:32:28.316Z,37.91
2023-05-07T08:33:28.286Z,37.85
2023-05-07T08:34:28.274Z,37.85
2023-05-07T08:35:28.261Z,37.80
2023-05-07T08:36:28.238Z,37.85
2023-05-07T08:37:28.239Z,36.67
2023-05-07T08:38:28.214Z,36.72
2023-05-07T08:39:28.296Z,37.85
2023-05-07T08:40:28.188Z,37.80
2023-05-07T08:41:28.183Z,37.85
2023-05-07T08:42:28.168Z,37.85
2023-05-07T08:43:28.143Z,36.67
2023-05-07T08:44:28.142Z,37.80
2023-05-07T08:45:28.136Z,36.72
2023-05-07T08:46:28.148Z,36.61
2023-05-07T08:47:28.111Z,37.80
2023-05-07T08:48:28.084Z,37.75
2023-05-07T08:49:28.073Z,36.67
2023-05-07T08:50:28.046Z,36.77
2023-05-07T08:51:28.056Z,37.91
2023-05-07T08:52:28.043Z,37.85
2023-05-07T08:53:28.044Z,36.67
2023-05-07T08:54:27.997Z,37.91
2023-05-07T08:55:28.019Z,37.85
2023-05-07T08:56:27.990Z,37.75
2023-05-07T08:57:27.967Z,36.61
2023-05-07T08:58:27.976Z,36.61
2023-05-07T08:59:27.941Z,37.85
2023-05-07T09:00:27.945Z,36.67
2023-05-07T09:01:27.951Z,36.61
2023-05-07T09:02:27.991Z,37.85
2023-05-07T09:03:27.901Z,36.61
2023-05-07T09:04:27.868Z,36.67
2023-05-07T09:05:27.850Z,37.85
2023-05-07T09:06:27.844Z,36.72
2023-05-07T09:07:27.826Z,37.85
2023-05-07T09:08:27.831Z,37.80
2023-05-07T09:09:27.803Z,36.61
2023-05-07T09:10:27.795Z,37.85
2023-05-07T09:11:27.798Z,36.67
2023-05-07T09:12:27.781Z,36.67
2023-05-07T09:13:27.867Z,36.67
2023-05-07T09:14:27.740Z,36.72
2023-05-07T09:15:27.733Z,36.61
2023-05-07T09:16:27.780Z,36.72
2023-05-07T09:17:27.763Z,36.72
2023-05-07T09:18:27.692Z,36.72
2023-05-07T09:19:27.673Z,36.67
2023-05-07T09:20:27.664Z,36.67
2023-05-07T09:21:27.652Z,36.67
2023-05-07T09:22:27.635Z,37.80
2023-05-07T09:23:27.628Z,37.85
2023-05-07T09:24:27.608Z,36.72
2023-05-07T09:25:27.595Z,36.67
2023-05-07T09:26:27.588Z,37.75
2023-05-07T09:27:27.689Z,36.67
2023-05-07T09:28:27.568Z,36.67
2023-05-07T09:29:27.568Z,36.72
2023-05-07T09:30:27.533Z,36.67
2023-05-07T09:31:27.585Z,36.72
2023-05-07T09:32:27.552Z,36.77
2023-05-07T09:33:27.517Z,36.67
2023-05-07T09:34:27.486Z,36.61
2023-05-07T09:35:27.476Z,36.67
2023-05-07T09:36:27.472Z,36.72
2023-05-07T09:37:27.457Z,36.67
2023-05-07T09:38:27.426Z,36.72
2023-05-07T09:39:27.424Z,36.61
2023-05-07T09:40:27.410Z,36.72
2023-05-07T09:41:27.389Z,36.67
2023-05-07T09:42:27.384Z,36.61
2023-05-07T09:43:27.385Z,36.67
2023-05-07T09:44:27.357Z,36.67
2023-05-07T09:45:27.380Z,36.67
2023-05-07T09:46:27.330Z,36.67
2023-05-07T09:47:27.395Z,36.61
2023-05-07T09:48:27.314Z,36.67
2023-05-07T09:49:27.335Z,36.61
2023-05-07T09:50:27.281Z,36.67
2023-05-07T09:51:27.264Z,36.61
2023-05-07T09:52:27.253Z,36.67
2023-05-07T09:53:27.231Z,36.61
2023-05-07T09:54:27.236Z,36.67
2023-05-07T09:55:27.212Z,36.67
2023-05-07T09:56:27.187Z,36.67
2023-05-07T09:57:27.190Z,36.61
2023-05-07T09:58:27.178Z,36.61
2023-05-07T09:59:30.049Z,36.61
2023-05-07T10:00:27.153Z,36.67
2023-05-07T10:01:27.207Z,36.72
2023-05-07T10:02:27.180Z,36.72
2023-05-07T10:03:27.150Z,36.67
2023-05-07T10:04:27.089Z,36.67
2023-05-07T10:05:27.096Z,36.72
2023-05-07T10:06:27.073Z,36.61
2023-05-07T10:07:27.077Z,36.67
2023-05-07T10:08:27.051Z,36.61
2023-05-07T10:09:27.025Z,36.77
2023-05-07T10:10:27.027Z,36.61
2023-05-07T10:11:27.019Z,36.61
2023-05-07T10:12:27.004Z,36.67
2023-05-07T10:13:27.061Z,36.67
2023-05-07T10:14:26.973Z,36.61
2023-05-07T10:15:27.165Z,36.67
2023-05-07T10:16:26.941Z,36.67
2023-05-07T10:17:27.037Z,36.67
2023-05-07T10:18:27.052Z,36.67
2023-05-07T10:19:26.911Z,36.67
2023-05-07T10:20:26.890Z,36.67
2023-05-07T10:21:26.897Z,36.67
2023-05-07T10:22:26.864Z,36.72
2023-05-07T10:23:26.867Z,36.67
2023-05-07T10:24:26.848Z,36.72
2023-05-07T10:25:26.839Z,36.67
2023-05-07T10:26:26.824Z,36.61
2023-05-07T10:27:26.804Z,36.67
2023-05-07T10:28:26.802Z,36.61
2023-05-07T10:29:26.791Z,36.67
2023-05-07T10:30:27.504Z,36.72
2023-05-07T10:31:26.926Z,36.61
2023-05-07T10:32:26.775Z,36.67
2023-05-07T10:33:26.744Z,36.72
2023-05-07T10:34:26.721Z,36.67
2023-05-07T10:35:26.716Z,36.72
2023-05-07T10:36:26.700Z,36.67
2023-05-07T10:37:26.687Z,36.67
2023-05-07T10:38:26.671Z,36.72
2023-05-07T10:39:26.674Z,36.67
2023-05-07T10:40:26.651Z,36.61
2023-05-07T10:41:26.636Z,36.72
2023-05-07T10:42:26.625Z,36.72
2023-05-07T10:43:26.622Z,36.67
2023-05-07T10:44:26.617Z,36.56
2023-05-07T10:45:26.589Z,36.72
2023-05-07T10:46:26.627Z,36.67
2023-05-07T10:47:26.697Z,36.67
2023-05-07T10:48:30.259Z,36.67
2023-05-07T10:49:26.543Z,36.67
2023-05-07T10:50:26.649Z,36.67
2023-05-07T10:51:26.507Z,36.61
2023-05-07T10:52:26.506Z,36.67
2023-05-07T10:53:26.480Z,36.72
2023-05-07T10:54:26.484Z,36.67
2023-05-07T10:55:26.804Z,36.61
2023-05-07T10:56:26.452Z,36.61
2023-05-07T10:57:26.438Z,36.61
2023-05-07T10:58:32.137Z,36.72
2023-05-07T10:59:27.449Z,36.67
2023-05-07T11:00:38.865Z,36.67
2023-05-07T11:01:27.688Z,36.67
2023-05-07T11:02:26.416Z,36.61
2023-05-07T11:03:26.391Z,36.61
2023-05-07T11:04:26.395Z,36.67
2023-05-07T11:05:26.411Z,36.67
2023-05-07T11:06:26.345Z,36.67
2023-05-07T11:07:26.335Z,36.67
2023-05-07T11:08:26.298Z,36.61
2023-05-07T11:09:26.288Z,36.67
2023-05-07T11:10:26.285Z,36.61
2023-05-07T11:11:26.253Z,36.67
2023-05-07T11:12:26.239Z,36.67
2023-05-07T11:13:26.335Z,36.72
2023-05-07T11:14:26.225Z,36.67
2023-05-07T11:15:26.205Z,36.67
2023-05-07T11:16:26.240Z,36.67
2023-05-07T11:17:26.238Z,36.67
2023-05-07T11:18:26.175Z,36.61
2023-05-07T11:19:26.189Z,36.67
2023-05-07T11:20:26.149Z,36.72
2023-05-07T11:21:26.125Z,36.61
2023-05-07T11:22:26.128Z,36.61
2023-05-07T11:23:26.098Z,36.56
2023-05-07T11:24:26.095Z,35.64
2023-05-07T11:25:26.073Z,36.67
2023-05-07T11:26:26.061Z,36.56
2023-05-07T11:27:26.055Z,36.67
2023-05-07T11:28:26.049Z,36.61
2023-05-07T11:29:26.030Z,36.61
2023-05-07T11:30:26.020Z,36.77
2023-05-07T11:31:26.051Z,36.67
2023-05-07T11:32:26.023Z,36.61
2023-05-07T11:33:25.987Z,36.77
2023-05-07T11:34:25.962Z,36.67
2023-05-07T11:35:25.986Z,36.67
2023-05-07T11:36:25.931Z,36.61
2023-05-07T11:37:25.967Z,36.67
2023-05-07T11:38:25.907Z,36.67
2023-05-07T11:39:25.908Z,36.61
2023-05-07T11:40:25.882Z,36.61
2023-05-07T11:41:25.877Z,36.61
2023-05-07T11:42:25.862Z,36.61
2023-05-07T11:43:25.854Z,36.61
2023-05-07T11:44:25.840Z,36.67
2023-05-07T11:45:25.814Z,36.61
2023-05-07T11:46:25.926Z,36.77
2023-05-07T11:47:25.901Z,36.67
2023-05-07T11:48:25.786Z,36.67
2023-05-07T11:49:25.775Z,36.56
2023-05-07T11:50:25.969Z,36.72
2023-05-07T11:51:25.779Z,36.61
2023-05-07T11:52:25.750Z,36.61
2023-05-07T11:53:25.711Z,36.67
2023-05-07T11:54:25.710Z,36.61
2023-05-07T11:55:25.909Z,36.67
2023-05-07T11:56:25.694Z,36.67
2023-05-07T11:57:25.671Z,36.61
2023-05-07T11:58:25.668Z,36.61
2023-05-07T11:59:25.646Z,36.67
2023-05-07T12:00:25.639Z,36.67
2023-05-07T12:01:25.619Z,36.72
2023-05-07T12:02:25.685Z,36.67
2023-05-07T12:03:25.626Z,36.67
2023-05-07T12:04:25.726Z,36.61
2023-05-07T12:05:25.560Z,36.67
2023-05-07T12:06:25.546Z,36.67
2023-05-07T12:07:25.575Z,36.67
2023-05-07T12:08:25.527Z,36.67
2023-05-07T12:09:25.516Z,36.67
2023-05-07T12:10:25.504Z,36.67
2023-05-07T12:11:25.493Z,36.67
2023-05-07T12:12:25.473Z,36.67
2023-05-07T12:13:25.497Z,36.77
2023-05-07T12:14:25.454Z,36.72
2023-05-07T12:15:25.439Z,36.61
2023-05-07T12:16:25.468Z,36.67
2023-05-07T12:17:25.451Z,36.56
2023-05-07T12:18:25.409Z,36.72
2023-05-07T12:19:25.395Z,36.61
2023-05-07T12:20:25.365Z,36.67
2023-05-07T12:21:25.380Z,36.61
2023-05-07T12:22:25.340Z,36.67
2023-05-07T12:23:25.427Z,36.72
2023-05-07T12:24:25.329Z,36.67
2023-05-07T12:25:25.304Z,36.61
2023-05-07T12:26:25.303Z,36.67
2023-05-07T12:27:25.280Z,36.67
2023-05-07T12:28:25.257Z,36.67
2023-05-07T12:29:25.268Z,36.67
2023-05-07T12:30:25.244Z,36.67
2023-05-07T12:31:25.258Z,36.61
2023-05-07T12:32:25.276Z,36.67
2023-05-07T12:33:25.203Z,36.67
2023-05-07T12:34:25.216Z,35.64
2023-05-07T12:35:25.188Z,36.67
2023-05-07T12:36:25.184Z,36.61
2023-05-07T12:37:25.165Z,36.61
2023-05-07T12:38:25.142Z,36.72
2023-05-07T12:39:25.302Z,35.59
2023-05-07T12:40:25.122Z,36.67
2023-05-07T12:41:25.094Z,35.64
2023-05-07T12:42:25.092Z,36.56
2023-05-07T12:43:25.074Z,36.61
2023-05-07T12:44:25.070Z,36.61
2023-05-07T12:45:25.058Z,36.61
2023-05-07T12:46:25.063Z,36.67
2023-05-07T12:47:25.061Z,36.67
2023-05-07T12:48:25.037Z,35.64
2023-05-07T12:49:25.497Z,36.67
2023-05-07T12:50:24.995Z,36.61
2023-05-07T12:51:24.975Z,36.61
2023-05-07T12:52:24.962Z,35.64